Bay City, Wisconsin
Current Conditions -  °F | °C
As of 4:11 PM on Saturday 20 Dec 2014 (Local Time) from KRGK Reporting Station
Haze Haze  
Wind Chill: 29°   Ceiling: 1900
Heat Index: 34°   Visibility: 4mi
Dew Point: 28°   Wind: 6mph
Humidity: 81%   Direction: 150°SSE
Pressure: 30.14"   Gusts: NA
Location:  44.59°N, 92.45°W
Report Text: KRGK 202211Z AUTO 15005KT 4SM BR SCT012 OVC019 01/M02 A3014 RMK AO2
Loading
Personal Weather Stations






























Interactive Weather Map New forecast layout! Learn more

10-Day Weather Forecast

Advertisements
Track Severe Weather on mobile